sensor_id;sensor_type;location;lat;lon;timestamp;temperature;humidity
4548;DHT22;2286;51.570;7.090;2023-02-26T00:01:34;0.00;99.90
4548;DHT22;2286;51.570;7.090;2023-02-26T00:04:03;0.00;99.90
4548;DHT22;2286;51.570;7.090;2023-02-26T00:06:32;0.00;99.90
4548;DHT22;2286;51.570;7.090;2023-02-26T00:08:59;0.00;99.90
4548;DHT22;2286;51.570;7.090;2023-02-26T00:11:27;0.00;99.90
4548;DHT22;2286;51.570;7.090;2023-02-26T00:13:54;0.00;99.90
4548;DHT22;2286;51.570;7.090;2023-02-26T00:16:26;0.00;99.90
4548;DHT22;2286;51.570;7.090;2023-02-26T00:18:56;0.20;99.90
4548;DHT22;2286;51.570;7.090;2023-02-26T00:21:24;0.20;99.90
4548;DHT22;2286;51.570;7.090;2023-02-26T00:23:52;0.30;99.90
4548;DHT22;2286;51.570;7.090;2023-02-26T00:26:20;0.40;99.90
4548;DHT22;2286;51.570;7.090;2023-02-26T00:28:48;0.50;99.90
4548;DHT22;2286;51.570;7.090;2023-02-26T00:31:15;0.60;99.90
4548;DHT22;2286;51.570;7.090;2023-02-26T00:33:43;0.60;99.90
4548;DHT22;2286;51.570;7.090;2023-02-26T00:36:20;0.70;99.90
4548;DHT22;2286;51.570;7.090;2023-02-26T00:38:56;0.80;99.90
4548;DHT22;2286;51.570;7.090;2023-02-26T00:41:27;0.90;99.90
4548;DHT22;2286;51.570;7.090;2023-02-26T00:43:54;0.90;99.90
4548;DHT22;2286;51.570;7.090;2023-02-26T00:46:31;1.00;99.90
4548;DHT22;2286;51.570;7.090;2023-02-26T00:49:02;1.00;99.90
4548;DHT22;2286;51.570;7.090;2023-02-26T00:51:40;1.10;99.90
4548;DHT22;2286;51.570;7.090;2023-02-26T00:54:17;1.20;99.90
4548;DHT22;2286;51.570;7.090;2023-02-26T00:56:45;1.20;99.90
4548;DHT22;2286;51.570;7.090;2023-02-26T00:59:12;1.20;99.90
4548;DHT22;2286;51.570;7.090;2023-02-26T01:01:39;1.20;99.90
4548;DHT22;2286;51.570;7.090;2023-02-26T01:04:07;1.20;99.90
4548;DHT22;2286;51.570;7.090;2023-02-26T01:06:42;1.10;99.90
4548;DHT22;2286;51.570;7.090;2023-02-26T01:09:15;1.10;99.90
4548;DHT22;2286;51.570;7.090;2023-02-26T01:11:43;1.10;99.90
4548;DHT22;2286;51.570;7.090;2023-02-26T01:14:11;1.10;99.90
4548;DHT22;2286;51.570;7.090;2023-02-26T01:16:46;1.10;99.90
4548;DHT22;2286;51.570;7.090;2023-02-26T01:19:19;1.00;99.90
4548;DHT22;2286;51.570;7.090;2023-02-26T01:21:55;0.90;99.90
4548;DHT22;2286;51.570;7.090;2023-02-26T01:24:29;0.80;99.90
4548;DHT22;2286;51.570;7.090;2023-02-26T01:26:57;0.70;99.90
4548;DHT22;2286;51.570;7.090;2023-02-26T01:29:24;0.60;99.90
4548;DHT22;2286;51.570;7.090;2023-02-26T01:31:56;0.40;99.90
4548;DHT22;2286;51.570;7.090;2023-02-26T01:34:31;0.40;99.90
4548;DHT22;2286;51.570;7.090;2023-02-26T01:37:06;0.30;99.90
4548;DHT22;2286;51.570;7.090;2023-02-26T01:39:38;0.20;99.90
4548;DHT22;2286;51.570;7.090;2023-02-26T01:42:11;0.20;99.90
4548;DHT22;2286;51.570;7.090;2023-02-26T01:44:44;0.10;99.90
4548;DHT22;2286;51.570;7.090;2023-02-26T01:47:19;0.20;99.90
4548;DHT22;2286;51.570;7.090;2023-02-26T01:49:47;0.20;99.90
4548;DHT22;2286;51.570;7.090;2023-02-26T01:55:28;0.00;99.90
4548;DHT22;2286;51.570;7.090;2023-02-26T01:57:58;0.00;99.90
4548;DHT22;2286;51.570;7.090;2023-02-26T02:00:26;-0.10;99.90
4548;DHT22;2286;51.570;7.090;2023-02-26T02:02:53;-0.20;99.90
4548;DHT22;2286;51.570;7.090;2023-02-26T02:05:25;-0.30;99.90
4548;DHT22;2286;51.570;7.090;2023-02-26T02:07:54;-0.30;99.90
4548;DHT22;2286;51.570;7.090;2023-02-26T02:10:22;-0.40;99.90
4548;DHT22;2286;51.570;7.090;2023-02-26T02:12:57;-0.50;99.90
4548;DHT22;2286;51.570;7.090;2023-02-26T02:15:33;-0.50;99.90
4548;DHT22;2286;51.570;7.090;2023-02-26T02:18:10;-0.60;99.90
4548;DHT22;2286;51.570;7.090;2023-02-26T02:20:56;-0.60;99.90
4548;DHT22;2286;51.570;7.090;2023-02-26T02:23:31;-0.70;99.90
4548;DHT22;2286;51.570;7.090;2023-02-26T02:26:20;-0.80;99.90
4548;DHT22;2286;51.570;7.090;2023-02-26T02:29:16;-0.80;99.90
4548;DHT22;2286;51.570;7.090;2023-02-26T02:31:53;-0.80;99.90
4548;DHT22;2286;51.570;7.090;2023-02-26T02:34:24;-0.90;99.90
4548;DHT22;2286;51.570;7.090;2023-02-26T02:36:55;-0.90;99.90
4548;DHT22;2286;51.570;7.090;2023-02-26T02:39:27;-1.00;99.90
4548;DHT22;2286;51.570;7.090;2023-02-26T02:41:57;-1.00;99.90
4548;DHT22;2286;51.570;7.090;2023-02-26T02:44:28;-1.00;99.90
4548;DHT22;2286;51.570;7.090;2023-02-26T02:46:59;-1.00;99.90
4548;DHT22;2286;51.570;7.090;2023-02-26T02:49:30;-1.10;99.90
4548;DHT22;2286;51.570;7.090;2023-02-26T02:52:02;-1.10;99.90
4548;DHT22;2286;51.570;7.090;2023-02-26T02:54:37;-1.10;99.90
4548;DHT22;2286;51.570;7.090;2023-02-26T02:57:09;-1.00;99.90
4548;DHT22;2286;51.570;7.090;2023-02-26T02:59:42;-1.10;99.90
4548;DHT22;2286;51.570;7.090;2023-02-26T03:02:14;-1.10;99.90
4548;DHT22;2286;51.570;7.090;2023-02-26T03:04:43;-1.20;99.90
4548;DHT22;2286;51.570;7.090;2023-02-26T03:07:11;-1.30;99.90
4548;DHT22;2286;51.570;7.090;2023-02-26T03:09:38;-1.20;99.90
4548;DHT22;2286;51.570;7.090;2023-02-26T03:12:05;-1.10;99.90
4548;DHT22;2286;51.570;7.090;2023-02-26T03:14:32;-1.20;99.90
4548;DHT22;2286;51.570;7.090;2023-02-26T03:17:05;-1.20;99.90
4548;DHT22;2286;51.570;7.090;2023-02-26T03:19:43;-1.20;1.00
4548;DHT22;2286;51.570;7.090;2023-02-26T03:22:14;-1.20;1.00
4548;DHT22;2286;51.570;7.090;2023-02-26T03:24:48;-1.10;1.00
4548;DHT22;2286;51.570;7.090;2023-02-26T03:27:20;-1.10;99.90
4548;DHT22;2286;51.570;7.090;2023-02-26T03:29:52;-1.10;99.90
4548;DHT22;2286;51.570;7.090;2023-02-26T03:32:24;-1.10;99.90
4548;DHT22;2286;51.570;7.090;2023-02-26T03:34:59;-1.20;99.90
4548;DHT22;2286;51.570;7.090;2023-02-26T03:37:31;-1.20;99.90
4548;DHT22;2286;51.570;7.090;2023-02-26T03:40:03;-1.30;1.00
4548;DHT22;2286;51.570;7.090;2023-02-26T03:42:35;-1.20;1.00
4548;DHT22;2286;51.570;7.090;2023-02-26T03:45:05;-1.30;1.00
4548;DHT22;2286;51.570;7.090;2023-02-26T03:47:34;-1.30;1.00
4548;DHT22;2286;51.570;7.090;2023-02-26T03:50:05;-1.40;1.00
4548;DHT22;2286;51.570;7.090;2023-02-26T03:52:36;-1.40;1.00
4548;DHT22;2286;51.570;7.090;2023-02-26T03:55:07;-1.40;1.00
4548;DHT22;2286;51.570;7.090;2023-02-26T03:57:36;-1.40;1.00
4548;DHT22;2286;51.570;7.090;2023-02-26T04:00:04;-1.30;1.00
4548;DHT22;2286;51.570;7.090;2023-02-26T04:02:35;-1.30;1.00
4548;DHT22;2286;51.570;7.090;2023-02-26T04:05:09;-1.30;1.00
4548;DHT22;2286;51.570;7.090;2023-02-26T04:07:37;-1.30;1.00
4548;DHT22;2286;51.570;7.090;2023-02-26T04:10:06;-1.40;1.00
4548;DHT22;2286;51.570;7.090;2023-02-26T04:12:34;-1.50;1.00
4548;DHT22;2286;51.570;7.090;2023-02-26T04:15:01;-1.50;1.00
4548;DHT22;2286;51.570;7.090;2023-02-26T04:17:29;-1.50;1.00
4548;DHT22;2286;51.570;7.090;2023-02-26T04:19:56;-1.60;1.00
4548;DHT22;2286;51.570;7.090;2023-02-26T04:22:25;-1.60;1.00
4548;DHT22;2286;51.570;7.090;2023-02-26T04:24:51;-1.60;1.00
4548;DHT22;2286;51.570;7.090;2023-02-26T04:27:18;-1.60;1.00
4548;DHT22;2286;51.570;7.090;2023-02-26T04:29:45;-1.60;1.00
4548;DHT22;2286;51.570;7.090;2023-02-26T04:32:12;-1.60;1.00
4548;DHT22;2286;51.570;7.090;2023-02-26T04:34:39;-1.60;1.00
4548;DHT22;2286;51.570;7.090;2023-02-26T04:37:06;-1.60;1.00
4548;DHT22;2286;51.570;7.090;2023-02-26T04:39:34;-1.60;1.00
4548;DHT22;2286;51.570;7.090;2023-02-26T04:42:01;-1.70;1.00
4548;DHT22;2286;51.570;7.090;2023-02-26T04:44:28;-1.70;1.00
4548;DHT22;2286;51.570;7.090;2023-02-26T04:46:55;-1.70;1.00
4548;DHT22;2286;51.570;7.090;2023-02-26T04:49:23;-1.70;1.00
4548;DHT22;2286;51.570;7.090;2023-02-26T04:51:49;-1.70;1.00
4548;DHT22;2286;51.570;7.090;2023-02-26T04:54:16;-1.70;1.00
4548;DHT22;2286;51.570;7.090;2023-02-26T04:56:45;-1.70;1.00
4548;DHT22;2286;51.570;7.090;2023-02-26T04:59:11;-1.80;1.00
4548;DHT22;2286;51.570;7.090;2023-02-26T05:01:38;-1.80;1.00
4548;DHT22;2286;51.570;7.090;2023-02-26T05:04:05;-1.90;1.00
4548;DHT22;2286;51.570;7.090;2023-02-26T05:06:32;-2.00;1.00
4548;DHT22;2286;51.570;7.090;2023-02-26T05:08:59;-2.00;1.00
4548;DHT22;2286;51.570;7.090;2023-02-26T05:11:26;-2.00;1.00
4548;DHT22;2286;51.570;7.090;2023-02-26T05:13:54;-2.10;1.00
4548;DHT22;2286;51.570;7.090;2023-02-26T05:16:21;-2.20;1.00
4548;DHT22;2286;51.570;7.090;2023-02-26T05:18:48;-2.10;1.00
4548;DHT22;2286;51.570;7.090;2023-02-26T05:21:15;-2.10;1.00
4548;DHT22;2286;51.570;7.090;2023-02-26T05:23:42;-2.10;1.00
4548;DHT22;2286;51.570;7.090;2023-02-26T05:26:09;-2.10;1.00
4548;DHT22;2286;51.570;7.090;2023-02-26T05:28:36;-2.10;1.00
4548;DHT22;2286;51.570;7.090;2023-02-26T05:31:04;-2.10;1.00
4548;DHT22;2286;51.570;7.090;2023-02-26T05:33:31;-2.00;1.00
4548;DHT22;2286;51.570;7.090;2023-02-26T05:35:58;-2.10;1.00
4548;DHT22;2286;51.570;7.090;2023-02-26T05:38:25;-2.10;1.00
4548;DHT22;2286;51.570;7.090;2023-02-26T05:40:55;-2.10;1.00
4548;DHT22;2286;51.570;7.090;2023-02-26T05:43:23;-2.10;1.00
4548;DHT22;2286;51.570;7.090;2023-02-26T05:45:50;-2.10;1.00
4548;DHT22;2286;51.570;7.090;2023-02-26T05:48:18;-2.00;1.00
4548;DHT22;2286;51.570;7.090;2023-02-26T05:50:46;-2.00;1.00
4548;DHT22;2286;51.570;7.090;2023-02-26T05:53:13;-2.00;1.00
4548;DHT22;2286;51.570;7.090;2023-02-26T05:55:39;-2.00;1.00
4548;DHT22;2286;51.570;7.090;2023-02-26T05:58:06;-2.10;1.00
4548;DHT22;2286;51.570;7.090;2023-02-26T06:00:33;-2.10;1.00
4548;DHT22;2286;51.570;7.090;2023-02-26T06:03:00;-2.10;1.00
4548;DHT22;2286;51.570;7.090;2023-02-26T06:05:28;-2.10;1.00
4548;DHT22;2286;51.570;7.090;2023-02-26T06:07:55;-2.10;1.00
4548;DHT22;2286;51.570;7.090;2023-02-26T06:10:22;-2.20;1.00
4548;DHT22;2286;51.570;7.090;2023-02-26T06:12:49;-2.20;1.00
4548;DHT22;2286;51.570;7.090;2023-02-26T06:15:15;-2.20;1.00
4548;DHT22;2286;51.570;7.090;2023-02-26T06:17:42;-2.20;1.00
4548;DHT22;2286;51.570;7.090;2023-02-26T06:20:10;-2.30;1.00
4548;DHT22;2286;51.570;7.090;2023-02-26T06:22:39;-2.30;1.00
4548;DHT22;2286;51.570;7.090;2023-02-26T06:25:06;-2.20;1.00
4548;DHT22;2286;51.570;7.090;2023-02-26T06:27:33;-2.30;1.00
4548;DHT22;2286;51.570;7.090;2023-02-26T06:30:00;-2.30;1.00
4548;DHT22;2286;51.570;7.090;2023-02-26T06:32:27;-2.30;1.00
4548;DHT22;2286;51.570;7.090;2023-02-26T06:34:54;-2.20;1.00
4548;DHT22;2286;51.570;7.090;2023-02-26T06:37:20;-2.40;1.00
4548;DHT22;2286;51.570;7.090;2023-02-26T06:39:49;-2.20;1.00
4548;DHT22;2286;51.570;7.090;2023-02-26T06:42:16;-2.20;1.00
4548;DHT22;2286;51.570;7.090;2023-02-26T06:44:43;-2.20;1.00
4548;DHT22;2286;51.570;7.090;2023-02-26T06:47:09;-2.20;1.00
4548;DHT22;2286;51.570;7.090;2023-02-26T06:49:36;-2.10;1.00
4548;DHT22;2286;51.570;7.090;2023-02-26T06:52:03;-2.00;1.00
4548;DHT22;2286;51.570;7.090;2023-02-26T06:54:30;-2.00;1.00
4548;DHT22;2286;51.570;7.090;2023-02-26T06:56:58;-2.00;1.00
4548;DHT22;2286;51.570;7.090;2023-02-26T06:59:27;-1.90;1.00
4548;DHT22;2286;51.570;7.090;2023-02-26T07:01:54;-1.90;1.00
4548;DHT22;2286;51.570;7.090;2023-02-26T07:04:21;-1.90;1.00
4548;DHT22;2286;51.570;7.090;2023-02-26T07:06:48;-2.00;1.00
4548;DHT22;2286;51.570;7.090;2023-02-26T07:09:15;-2.00;1.00
4548;DHT22;2286;51.570;7.090;2023-02-26T07:11:44;-2.00;1.00
4548;DHT22;2286;51.570;7.090;2023-02-26T07:14:12;-1.90;1.00
4548;DHT22;2286;51.570;7.090;2023-02-26T07:16:39;-1.90;1.00
4548;DHT22;2286;51.570;7.090;2023-02-26T07:19:06;-1.80;1.00
4548;DHT22;2286;51.570;7.090;2023-02-26T07:21:33;-1.70;1.00
4548;DHT22;2286;51.570;7.090;2023-02-26T07:24:00;-1.70;1.00
4548;DHT22;2286;51.570;7.090;2023-02-26T07:26:27;-1.70;1.00
4548;DHT22;2286;51.570;7.090;2023-02-26T07:28:53;-1.70;1.00
4548;DHT22;2286;51.570;7.090;2023-02-26T07:31:22;-1.60;1.00
4548;DHT22;2286;51.570;7.090;2023-02-26T07:33:48;-1.50;1.00
4548;DHT22;2286;51.570;7.090;2023-02-26T07:36:15;-1.50;1.00
4548;DHT22;2286;51.570;7.090;2023-02-26T07:38:42;-1.30;1.00
4548;DHT22;2286;51.570;7.090;2023-02-26T07:41:09;-1.30;1.00
4548;DHT22;2286;51.570;7.090;2023-02-26T07:43:36;-1.30;1.00
4548;DHT22;2286;51.570;7.090;2023-02-26T07:46:03;-1.20;1.00
4548;DHT22;2286;51.570;7.090;2023-02-26T07:48:32;-1.20;99.90
4548;DHT22;2286;51.570;7.090;2023-02-26T07:50:59;-1.10;99.90
4548;DHT22;2286;51.570;7.090;2023-02-26T07:53:26;-1.00;99.90
4548;DHT22;2286;51.570;7.090;2023-02-26T07:55:53;-0.90;99.90
4548;DHT22;2286;51.570;7.090;2023-02-26T07:58:20;-1.00;99.90
4548;DHT22;2286;51.570;7.090;2023-02-26T08:00:46;-1.00;99.90
4548;DHT22;2286;51.570;7.090;2023-02-26T08:03:13;-0.90;99.90
4548;DHT22;2286;51.570;7.090;2023-02-26T08:05:42;-0.80;99.90
4548;DHT22;2286;51.570;7.090;2023-02-26T08:08:09;-0.80;99.90
4548;DHT22;2286;51.570;7.090;2023-02-26T08:10:36;-0.70;99.90
4548;DHT22;2286;51.570;7.090;2023-02-26T08:13:03;-0.70;99.90
4548;DHT22;2286;51.570;7.090;2023-02-26T08:15:30;-0.70;99.90
4548;DHT22;2286;51.570;7.090;2023-02-26T08:17:57;-0.70;99.90
4548;DHT22;2286;51.570;7.090;2023-02-26T08:20:24;-0.60;99.90
4548;DHT22;2286;51.570;7.090;2023-02-26T08:22:52;-0.50;99.90
4548;DHT22;2286;51.570;7.090;2023-02-26T08:25:19;-0.50;99.90
4548;DHT22;2286;51.570;7.090;2023-02-26T08:27:46;-0.40;99.90
4548;DHT22;2286;51.570;7.090;2023-02-26T08:30:13;-0.30;99.90
4548;DHT22;2286;51.570;7.090;2023-02-26T08:32:40;-0.30;99.90
4548;DHT22;2286;51.570;7.090;2023-02-26T08:35:08;-0.20;99.90
4548;DHT22;2286;51.570;7.090;2023-02-26T08:37:35;-0.10;99.90
4548;DHT22;2286;51.570;7.090;2023-02-26T08:40:05;0.00;99.90
4548;DHT22;2286;51.570;7.090;2023-02-26T08:42:32;0.10;99.90
4548;DHT22;2286;51.570;7.090;2023-02-26T08:44:59;0.20;99.90
4548;DHT22;2286;51.570;7.090;2023-02-26T08:47:26;0.30;99.90
4548;DHT22;2286;51.570;7.090;2023-02-26T08:49:53;0.40;99.90
4548;DHT22;2286;51.570;7.090;2023-02-26T08:52:20;0.50;99.90
4548;DHT22;2286;51.570;7.090;2023-02-26T08:54:47;0.60;99.90
4548;DHT22;2286;51.570;7.090;2023-02-26T08:57:16;0.80;99.90
4548;DHT22;2286;51.570;7.090;2023-02-26T08:59:42;0.90;99.90
4548;DHT22;2286;51.570;7.090;2023-02-26T09:02:10;1.00;99.90
4548;DHT22;2286;51.570;7.090;2023-02-26T09:04:37;1.10;99.90
4548;DHT22;2286;51.570;7.090;2023-02-26T09:07:05;1.20;99.90
4548;DHT22;2286;51.570;7.090;2023-02-26T09:09:31;1.40;99.90
4548;DHT22;2286;51.570;7.090;2023-02-26T09:11:58;1.50;99.90
4548;DHT22;2286;51.570;7.090;2023-02-26T09:14:27;1.60;99.90
4548;DHT22;2286;51.570;7.090;2023-02-26T09:16:53;1.70;99.90
4548;DHT22;2286;51.570;7.090;2023-02-26T09:19:20;1.90;99.90
4548;DHT22;2286;51.570;7.090;2023-02-26T09:21:47;2.00;99.90
4548;DHT22;2286;51.570;7.090;2023-02-26T09:24:14;2.10;99.90
4548;DHT22;2286;51.570;7.090;2023-02-26T09:26:41;2.20;99.90
4548;DHT22;2286;51.570;7.090;2023-02-26T09:29:08;2.30;99.90
4548;DHT22;2286;51.570;7.090;2023-02-26T09:31:37;2.40;99.90
4548;DHT22;2286;51.570;7.090;2023-02-26T09:34:04;2.60;99.90
4548;DHT22;2286;51.570;7.090;2023-02-26T09:36:31;2.80;99.90
4548;DHT22;2286;51.570;7.090;2023-02-26T09:38:58;2.80;99.90
4548;DHT22;2286;51.570;7.090;2023-02-26T09:41:27;3.00;99.90
4548;DHT22;2286;51.570;7.090;2023-02-26T09:44:08;3.10;99.90
4548;DHT22;2286;51.570;7.090;2023-02-26T09:46:43;3.30;99.90
4548;DHT22;2286;51.570;7.090;2023-02-26T09:49:19;3.40;99.90
4548;DHT22;2286;51.570;7.090;2023-02-26T09:51:50;3.60;99.90
4548;DHT22;2286;51.570;7.090;2023-02-26T09:54:22;4.10;99.90
4548;DHT22;2286;51.570;7.090;2023-02-26T09:56:51;4.80;99.90
4548;DHT22;2286;51.570;7.090;2023-02-26T09:59:19;5.30;99.90
4548;DHT22;2286;51.570;7.090;2023-02-26T10:01:53;5.90;99.90
4548;DHT22;2286;51.570;7.090;2023-02-26T10:04:29;6.50;99.90
4548;DHT22;2286;51.570;7.090;2023-02-26T10:07:09;7.00;99.90
4548;DHT22;2286;51.570;7.090;2023-02-26T10:09:53;7.20;99.90
4548;DHT22;2286;51.570;7.090;2023-02-26T10:12:25;7.50;99.90
4548;DHT22;2286;51.570;7.090;2023-02-26T10:14:57;8.00;99.90
4548;DHT22;2286;51.570;7.090;2023-02-26T10:17:31;8.20;99.90
4548;DHT22;2286;51.570;7.090;2023-02-26T10:20:02;8.80;99.90
4548;DHT22;2286;51.570;7.090;2023-02-26T10:22:32;8.60;99.90
4548;DHT22;2286;51.570;7.090;2023-02-26T10:25:04;8.60;99.90
4548;DHT22;2286;51.570;7.090;2023-02-26T10:27:42;9.10;99.90
4548;DHT22;2286;51.570;7.090;2023-02-26T10:30:18;9.50;99.90
4548;DHT22;2286;51.570;7.090;2023-02-26T10:32:56;9.60;99.90
4548;DHT22;2286;51.570;7.090;2023-02-26T10:35:27;9.70;99.90
4548;DHT22;2286;51.570;7.090;2023-02-26T10:37:59;9.50;99.90
4548;DHT22;2286;51.570;7.090;2023-02-26T10:40:30;9.10;99.90
4548;DHT22;2286;51.570;7.090;2023-02-26T10:43:05;9.50;99.90
4548;DHT22;2286;51.570;7.090;2023-02-26T10:45:42;9.10;99.90
4548;DHT22;2286;51.570;7.090;2023-02-26T10:48:23;8.10;99.90
4548;DHT22;2286;51.570;7.090;2023-02-26T10:50:56;7.80;99.90
4548;DHT22;2286;51.570;7.090;2023-02-26T10:53:24;7.10;99.90
4548;DHT22;2286;51.570;7.090;2023-02-26T10:55:58;7.50;99.90
4548;DHT22;2286;51.570;7.090;2023-02-26T10:58:28;8.60;99.90
4548;DHT22;2286;51.570;7.090;2023-02-26T11:00:56;9.60;99.90
4548;DHT22;2286;51.570;7.090;2023-02-26T11:03:29;10.40;99.90
4548;DHT22;2286;51.570;7.090;2023-02-26T11:05:57;11.60;99.90
4548;DHT22;2286;51.570;7.090;2023-02-26T11:08:26;12.00;99.90
4548;DHT22;2286;51.570;7.090;2023-02-26T11:10:55;11.60;99.90
4548;DHT22;2286;51.570;7.090;2023-02-26T11:13:22;10.00;99.90
4548;DHT22;2286;51.570;7.090;2023-02-26T11:15:52;8.80;99.90
4548;DHT22;2286;51.570;7.090;2023-02-26T11:18:22;8.10;99.90
4548;DHT22;2286;51.570;7.090;2023-02-26T11:20:54;7.90;99.90
4548;DHT22;2286;51.570;7.090;2023-02-26T11:23:25;7.90;99.90
4548;DHT22;2286;51.570;7.090;2023-02-26T11:25:53;8.00;99.90
4548;DHT22;2286;51.570;7.090;2023-02-26T11:28:30;8.30;99.90
4548;DHT22;2286;51.570;7.090;2023-02-26T11:31:00;9.10;99.90
4548;DHT22;2286;51.570;7.090;2023-02-26T11:33:32;10.50;99.90
4548;DHT22;2286;51.570;7.090;2023-02-26T11:36:05;12.10;99.90
4548;DHT22;2286;51.570;7.090;2023-02-26T11:38:33;13.20;99.90
4548;DHT22;2286;51.570;7.090;2023-02-26T11:41:00;14.20;99.90
4548;DHT22;2286;51.570;7.090;2023-02-26T11:43:35;15.10;99.90
4548;DHT22;2286;51.570;7.090;2023-02-26T11:46:04;15.50;99.90
4548;DHT22;2286;51.570;7.090;2023-02-26T11:48:39;16.10;99.90
4548;DHT22;2286;51.570;7.090;2023-02-26T11:51:11;15.60;99.90
4548;DHT22;2286;51.570;7.090;2023-02-26T11:53:42;15.40;99.90
4548;DHT22;2286;51.570;7.090;2023-02-26T11:56:12;15.20;99.90
4548;DHT22;2286;51.570;7.090;2023-02-26T11:58:40;14.70;99.90
4548;DHT22;2286;51.570;7.090;2023-02-26T12:01:11;15.00;99.90
4548;DHT22;2286;51.570;7.090;2023-02-26T12:03:43;14.80;99.90
4548;DHT22;2286;51.570;7.090;2023-02-26T12:06:15;14.90;99.90
4548;DHT22;2286;51.570;7.090;2023-02-26T12:08:43;14.70;99.90
4548;DHT22;2286;51.570;7.090;2023-02-26T12:11:34;14.30;99.90
4548;DHT22;2286;51.570;7.090;2023-02-26T12:14:16;14.50;99.90
4548;DHT22;2286;51.570;7.090;2023-02-26T12:16:54;15.40;99.90
4548;DHT22;2286;51.570;7.090;2023-02-26T12:19:35;16.80;99.90
4548;DHT22;2286;51.570;7.090;2023-02-26T12:22:40;17.70;99.90
4548;DHT22;2286;51.570;7.090;2023-02-26T12:25:20;17.00;99.90
4548;DHT22;2286;51.570;7.090;2023-02-26T12:28:05;16.70;99.90
4548;DHT22;2286;51.570;7.090;2023-02-26T12:30:52;16.10;99.90
4548;DHT22;2286;51.570;7.090;2023-02-26T12:33:33;16.70;99.90
4548;DHT22;2286;51.570;7.090;2023-02-26T12:36:15;17.40;99.90
4548;DHT22;2286;51.570;7.090;2023-02-26T12:38:53;18.50;99.90
4548;DHT22;2286;51.570;7.090;2023-02-26T12:41:37;18.80;99.90
4548;DHT22;2286;51.570;7.090;2023-02-26T12:44:19;19.30;99.90
4548;DHT22;2286;51.570;7.090;2023-02-26T12:46:56;19.50;99.90
4548;DHT22;2286;51.570;7.090;2023-02-26T12:49:39;19.40;99.90
4548;DHT22;2286;51.570;7.090;2023-02-26T12:52:33;18.90;99.90
4548;DHT22;2286;51.570;7.090;2023-02-26T12:55:19;16.70;99.90
4548;DHT22;2286;51.570;7.090;2023-02-26T13:01:06;15.80;99.90
4548;DHT22;2286;51.570;7.090;2023-02-26T13:07:17;17.50;99.90
4548;DHT22;2286;51.570;7.090;2023-02-26T13:09:52;17.80;99.90
4548;DHT22;2286;51.570;7.090;2023-02-26T13:12:32;18.70;99.90
4548;DHT22;2286;51.570;7.090;2023-02-26T13:15:10;18.50;99.90
4548;DHT22;2286;51.570;7.090;2023-02-26T13:17:47;18.80;99.90
4548;DHT22;2286;51.570;7.090;2023-02-26T13:20:20;19.10;99.90
4548;DHT22;2286;51.570;7.090;2023-02-26T13:22:52;18.60;99.90
4548;DHT22;2286;51.570;7.090;2023-02-26T13:25:32;18.90;99.90
4548;DHT22;2286;51.570;7.090;2023-02-26T13:28:09;19.60;99.90
4548;DHT22;2286;51.570;7.090;2023-02-26T13:30:40;18.50;99.90
4548;DHT22;2286;51.570;7.090;2023-02-26T13:33:15;18.10;99.90
4548;DHT22;2286;51.570;7.090;2023-02-26T13:35:44;18.80;99.90
4548;DHT22;2286;51.570;7.090;2023-02-26T13:38:16;19.50;99.90
4548;DHT22;2286;51.570;7.090;2023-02-26T13:40:53;19.90;99.90
4548;DHT22;2286;51.570;7.090;2023-02-26T13:43:37;20.20;99.90
4548;DHT22;2286;51.570;7.090;2023-02-26T13:46:22;20.00;99.90
4548;DHT22;2286;51.570;7.090;2023-02-26T13:48:56;20.10;99.90
4548;DHT22;2286;51.570;7.090;2023-02-26T13:51:30;20.80;99.90
4548;DHT22;2286;51.570;7.090;2023-02-26T13:54:00;21.20;99.90
4548;DHT22;2286;51.570;7.090;2023-02-26T13:59:45;21.60;99.90
4548;DHT22;2286;51.570;7.090;2023-02-26T14:05:35;20.50;99.90
4548;DHT22;2286;51.570;7.090;2023-02-26T14:14:12;20.70;99.90
4548;DHT22;2286;51.570;7.090;2023-02-26T14:16:42;20.60;99.90
4548;DHT22;2286;51.570;7.090;2023-02-26T14:19:21;20.80;99.90
4548;DHT22;2286;51.570;7.090;2023-02-26T14:21:50;20.90;99.90
4548;DHT22;2286;51.570;7.090;2023-02-26T14:24:21;20.50;99.90
4548;DHT22;2286;51.570;7.090;2023-02-26T14:26:50;19.90;99.90
4548;DHT22;2286;51.570;7.090;2023-02-26T14:29:38;20.10;99.90
4548;DHT22;2286;51.570;7.090;2023-02-26T14:32:15;20.10;99.90
4548;DHT22;2286;51.570;7.090;2023-02-26T14:34:51;19.90;99.90
4548;DHT22;2286;51.570;7.090;2023-02-26T14:37:22;18.50;99.90
4548;DHT22;2286;51.570;7.090;2023-02-26T14:39:54;17.50;99.90
4548;DHT22;2286;51.570;7.090;2023-02-26T14:42:24;16.60;99.90
4548;DHT22;2286;51.570;7.090;2023-02-26T14:45:00;16.60;99.90
4548;DHT22;2286;51.570;7.090;2023-02-26T14:47:30;17.20;99.90
4548;DHT22;2286;51.570;7.090;2023-02-26T14:49:57;18.30;99.90
4548;DHT22;2286;51.570;7.090;2023-02-26T14:52:38;19.70;99.90
4548;DHT22;2286;51.570;7.090;2023-02-26T14:55:40;20.10;99.90
4548;DHT22;2286;51.570;7.090;2023-02-26T14:58:37;20.50;99.90
4548;DHT22;2286;51.570;7.090;2023-02-26T15:01:14;20.40;99.90
4548;DHT22;2286;51.570;7.090;2023-02-26T15:07:05;19.90;99.90
4548;DHT22;2286;51.570;7.090;2023-02-26T15:09:43;19.80;99.90
4548;DHT22;2286;51.570;7.090;2023-02-26T15:12:22;20.30;99.90
4548;DHT22;2286;51.570;7.090;2023-02-26T15:15:02;20.60;99.90
4548;DHT22;2286;51.570;7.090;2023-02-26T15:17:47;19.60;99.90
4548;DHT22;2286;51.570;7.090;2023-02-26T15:20:26;20.50;99.90
4548;DHT22;2286;51.570;7.090;2023-02-26T15:23:10;20.30;99.90
4548;DHT22;2286;51.570;7.090;2023-02-26T15:25:40;19.60;99.90
4548;DHT22;2286;51.570;7.090;2023-02-26T15:28:12;19.20;99.90
4548;DHT22;2286;51.570;7.090;2023-02-26T15:30:41;19.70;99.90
4548;DHT22;2286;51.570;7.090;2023-02-26T15:33:12;19.80;99.90
4548;DHT22;2286;51.570;7.090;2023-02-26T15:35:42;19.50;99.90
4548;DHT22;2286;51.570;7.090;2023-02-26T15:38:09;19.00;99.90
4548;DHT22;2286;51.570;7.090;2023-02-26T15:40:37;18.70;99.90
4548;DHT22;2286;51.570;7.090;2023-02-26T15:43:06;18.80;99.90
4548;DHT22;2286;51.570;7.090;2023-02-26T15:45:36;18.70;99.90
4548;DHT22;2286;51.570;7.090;2023-02-26T15:48:05;19.20;99.90
4548;DHT22;2286;51.570;7.090;2023-02-26T15:50:35;19.20;99.90
4548;DHT22;2286;51.570;7.090;2023-02-26T15:53:04;18.70;99.90
4548;DHT22;2286;51.570;7.090;2023-02-26T15:55:34;18.60;99.90
4548;DHT22;2286;51.570;7.090;2023-02-26T15:58:04;18.10;99.90
4548;DHT22;2286;51.570;7.090;2023-02-26T16:00:34;18.30;99.90
4548;DHT22;2286;51.570;7.090;2023-02-26T16:03:01;18.00;99.90
4548;DHT22;2286;51.570;7.090;2023-02-26T16:05:29;17.70;99.90
4548;DHT22;2286;51.570;7.090;2023-02-26T16:07:56;17.80;99.90
4548;DHT22;2286;51.570;7.090;2023-02-26T16:10:32;17.40;99.90
4548;DHT22;2286;51.570;7.090;2023-02-26T16:13:01;17.00;99.90
4548;DHT22;2286;51.570;7.090;2023-02-26T16:15:31;17.20;99.90
4548;DHT22;2286;51.570;7.090;2023-02-26T16:18:00;16.30;99.90
4548;DHT22;2286;51.570;7.090;2023-02-26T16:20:29;16.00;99.90
4548;DHT22;2286;51.570;7.090;2023-02-26T16:23:01;15.50;99.90
4548;DHT22;2286;51.570;7.090;2023-02-26T16:25:36;15.20;99.90
4548;DHT22;2286;51.570;7.090;2023-02-26T16:28:15;15.00;99.90
4548;DHT22;2286;51.570;7.090;2023-02-26T16:30:47;14.10;99.90
4548;DHT22;2286;51.570;7.090;2023-02-26T16:33:16;12.40;99.90
4548;DHT22;2286;51.570;7.090;2023-02-26T16:35:45;10.90;99.90
4548;DHT22;2286;51.570;7.090;2023-02-26T16:38:17;10.00;99.90
4548;DHT22;2286;51.570;7.090;2023-02-26T16:40:53;9.20;99.90
4548;DHT22;2286;51.570;7.090;2023-02-26T16:43:33;8.70;99.90
4548;DHT22;2286;51.570;7.090;2023-02-26T16:46:02;8.30;99.90
4548;DHT22;2286;51.570;7.090;2023-02-26T16:48:34;8.00;99.90
4548;DHT22;2286;51.570;7.090;2023-02-26T16:51:06;7.70;99.90
4548;DHT22;2286;51.570;7.090;2023-02-26T16:53:35;7.50;99.90
4548;DHT22;2286;51.570;7.090;2023-02-26T16:56:05;7.30;99.90
4548;DHT22;2286;51.570;7.090;2023-02-26T16:58:33;7.20;99.90
4548;DHT22;2286;51.570;7.090;2023-02-26T17:01:05;7.00;99.90